Latest  Newer  Older  Last 2 hours slideshow  Last 24 hours slideshow  Refresh every 5 minutes 
Current image  Latest image  Rain/snow radar  Cloud coverage sat images 

All time is UTC (add 2 hours to UTC in wintertime, 3 hours to UTC in DST for Latvia local time)

2019/04/20 10:20 EVRA 201020Z 32007KT 270V360 CAVOK 10/04 Q1028 NOSIG
2019/04/20 10:20 EVLA 201020Z AUTO 32006KT 290V360 9999 NCD 12/04 Q1030
2019/04/20 10:20 EVVA 201020Z AUTO 36010KT CAVOK 11/04 Q1031
2019/04/20 10:20 EYKA 201020Z 35009KT 270V060 CAVOK 15/M01 Q1027
2019/04/20 10:20 EYPA 201020Z 33006KT 260V030 CAVOK 10/03 Q1030
2019/04/20 10:20 EYSA 201020Z 34011KT 310V010 CAVOK 14/03 Q1028 BLU NOSIG
2019/04/20 10:20 EYVI 201020Z 35009KT 310V020 CAVOK 14/M01 Q1026 NOSIG
2019/04/20 07:50 EEKA 200750Z 36006KT 9999 BKN043 08/04 Q1031
2019/04/20 09:50 EEKE 200950Z 36013KT 9999 FEW020 11/03 Q1030
2019/04/20 09:50 EEPU 200950Z 01009KT 340V060 CAVOK 14/M03 Q1028
2019/04/20 10:20 EETN 201020Z 31009KT CAVOK 11/01 Q1029 NOSIG
2019/04/20 09:50 EETU 200950Z AUTO 02009KT 350V060 9999 NCD 13/M03 Q1027
   RIGA AIRPORT     EVRA               56 55N  023 58E   10   X     T          6 LV
   LIEPAJA INTL     EVLA        26406  56 31N  021 06E    4   X                8 LV
   VENTPILS         EVVA               57 21N  021 33E    6   X                8 LV
   KAUNAS           EYKA               54 54N  023 55E   77   X     T          6 LT
   PALANGA INTL     EYPA               55 55N  021 03E   10   X                6 LT
   SIAULIAI INTL    EYSA               55 54N  023 24E  135   X     T          6 LT
   VILNIUS INTL     EYVI        26730  54 38N  025 17E  197   X     T          6 LT
   KARDLA           EEKA        26116  58 59N  022 50E    4   X                8 EE
   KURESSAARE       EEKE               58 14N  022 31E    4   X                8 EE
   PARNU            EEPU               58 25N  024 28E   14   X                8 EE
   TALLINN          EETN        26038  59 24N  024 49E   40   X     T          8 EE
   TARTU            EETU               58 19N  026 41E   67   X                8 EE